sensor_id;sensor_type;location;lat;lon;timestamp;P1;durP1;ratioP1;P2;durP2;ratioP2
70205;SDS011;57593;55.896;37.396;2022-12-29T00:00:24;3.88;;;2.05;;
70205;SDS011;57593;55.896;37.396;2022-12-29T00:00:54;5.70;;;2.20;;
70205;SDS011;57593;55.896;37.396;2022-12-29T00:01:25;6.00;;;2.65;;
70205;SDS011;57593;55.896;37.396;2022-12-29T00:01:56;5.18;;;1.92;;
70205;SDS011;57593;55.896;37.396;2022-12-29T00:02:26;6.32;;;1.98;;
70205;SDS011;57593;55.896;37.396;2022-12-29T00:02:57;4.30;;;2.17;;
70205;SDS011;57593;55.896;37.396;2022-12-29T00:03:28;4.55;;;2.00;;
70205;SDS011;57593;55.896;37.396;2022-12-29T00:03:58;6.18;;;2.08;;
70205;SDS011;57593;55.896;37.396;2022-12-29T00:04:29;4.88;;;1.80;;
70205;SDS011;57593;55.896;37.396;2022-12-29T00:05:00;3.75;;;1.85;;
70205;SDS011;57593;55.896;37.396;2022-12-29T00:05:31;5.40;;;1.70;;
70205;SDS011;57593;55.896;37.396;2022-12-29T00:06:01;6.45;;;2.40;;
70205;SDS011;57593;55.896;37.396;2022-12-29T00:06:33;4.75;;;2.33;;
70205;SDS011;57593;55.896;37.396;2022-12-29T00:07:03;4.72;;;1.90;;
70205;SDS011;57593;55.896;37.396;2022-12-29T00:07:35;4.60;;;2.03;;
70205;SDS011;57593;55.896;37.396;2022-12-29T00:08:05;5.10;;;1.98;;
70205;SDS011;57593;55.896;37.396;2022-12-29T00:08:36;5.07;;;2.00;;
70205;SDS011;57593;55.896;37.396;2022-12-29T00:09:11;5.90;;;1.92;;
70205;SDS011;57593;55.896;37.396;2022-12-29T00:09:42;3.67;;;1.58;;
70205;SDS011;57593;55.896;37.396;2022-12-29T00:10:13;2.92;;;1.60;;
70205;SDS011;57593;55.896;37.396;2022-12-29T00:10:44;5.47;;;1.67;;
70205;SDS011;57593;55.896;37.396;2022-12-29T00:11:15;4.90;;;1.30;;
70205;SDS011;57593;55.896;37.396;2022-12-29T00:11:49;5.32;;;1.83;;
70205;SDS011;57593;55.896;37.396;2022-12-29T00:12:22;2.72;;;1.40;;
70205;SDS011;57593;55.896;37.396;2022-12-29T00:12:52;5.93;;;2.70;;
70205;SDS011;57593;55.896;37.396;2022-12-29T00:13:42;3.28;;;1.40;;
70205;SDS011;57593;55.896;37.396;2022-12-29T00:14:32;5.40;;;1.80;;
70205;SDS011;57593;55.896;37.396;2022-12-29T00:15:21;6.53;;;1.67;;
70205;SDS011;57593;55.896;37.396;2022-12-29T00:16:07;8.43;;;1.40;;
70205;SDS011;57593;55.896;37.396;2022-12-29T00:16:38;2.30;;;1.20;;
70205;SDS011;57593;55.896;37.396;2022-12-29T00:17:12;3.42;;;1.38;;
70205;SDS011;57593;55.896;37.396;2022-12-29T00:17:42;6.50;;;1.30;;
70205;SDS011;57593;55.896;37.396;2022-12-29T00:18:13;2.58;;;1.10;;
70205;SDS011;57593;55.896;37.396;2022-12-29T00:18:44;4.00;;;1.33;;
70205;SDS011;57593;55.896;37.396;2022-12-29T00:19:14;5.15;;;1.33;;
70205;SDS011;57593;55.896;37.396;2022-12-29T00:20:03;3.22;;;1.25;;
70205;SDS011;57593;55.896;37.396;2022-12-29T00:20:54;6.28;;;1.40;;
70205;SDS011;57593;55.896;37.396;2022-12-29T00:21:43;3.53;;;1.10;;
70205;SDS011;57593;55.896;37.396;2022-12-29T00:22:33;5.32;;;1.10;;
70205;SDS011;57593;55.896;37.396;2022-12-29T00:23:22;5.78;;;1.20;;
70205;SDS011;57593;55.896;37.396;2022-12-29T00:24:19;6.47;;;1.20;;
70205;SDS011;57593;55.896;37.396;2022-12-29T00:24:57;3.05;;;1.08;;
70205;SDS011;57593;55.896;37.396;2022-12-29T00:25:47;4.35;;;1.08;;
70205;SDS011;57593;55.896;37.396;2022-12-29T00:26:58;1.83;;;1.08;;
70205;SDS011;57593;55.896;37.396;2022-12-29T00:27:48;2.53;;;1.00;;
70205;SDS011;57593;55.896;37.396;2022-12-29T00:28:37;3.30;;;0.98;;
70205;SDS011;57593;55.896;37.396;2022-12-29T00:29:27;4.18;;;1.15;;
70205;SDS011;57593;55.896;37.396;2022-12-29T00:30:17;7.25;;;1.23;;
70205;SDS011;57593;55.896;37.396;2022-12-29T00:31:11;3.78;;;1.00;;
70205;SDS011;57593;55.896;37.396;2022-12-29T00:32:00;6.04;;;1.10;;
70205;SDS011;57593;55.896;37.396;2022-12-29T00:32:49;3.80;;;0.80;;
70205;SDS011;57593;55.896;37.396;2022-12-29T00:33:40;2.83;;;1.00;;
70205;SDS011;57593;55.896;37.396;2022-12-29T00:34:29;2.67;;;1.00;;
70205;SDS011;57593;55.896;37.396;2022-12-29T00:35:21;2.83;;;0.93;;
70205;SDS011;57593;55.896;37.396;2022-12-29T00:36:06;5.35;;;1.13;;
70205;SDS011;57593;55.896;37.396;2022-12-29T00:36:41;3.80;;;1.00;;
70205;SDS011;57593;55.896;37.396;2022-12-29T00:37:14;6.43;;;1.00;;
70205;SDS011;57593;55.896;37.396;2022-12-29T00:37:45;3.83;;;0.90;;
70205;SDS011;57593;55.896;37.396;2022-12-29T00:38:37;4.93;;;1.02;;
70205;SDS011;57593;55.896;37.396;2022-12-29T00:39:29;11.65;;;2.47;;
70205;SDS011;57593;55.896;37.396;2022-12-29T00:40:19;5.00;;;1.17;;
70205;SDS011;57593;55.896;37.396;2022-12-29T00:41:08;4.80;;;1.00;;
70205;SDS011;57593;55.896;37.396;2022-12-29T00:42:04;3.47;;;1.67;;
70205;SDS011;57593;55.896;37.396;2022-12-29T00:42:54;3.72;;;1.10;;
70205;SDS011;57593;55.896;37.396;2022-12-29T00:43:54;3.92;;;0.90;;
70205;SDS011;57593;55.896;37.396;2022-12-29T00:44:36;4.50;;;1.20;;
70205;SDS011;57593;55.896;37.396;2022-12-29T00:45:07;3.38;;;1.33;;
70205;SDS011;57593;55.896;37.396;2022-12-29T00:45:39;2.63;;;1.02;;
70205;SDS011;57593;55.896;37.396;2022-12-29T00:46:11;3.63;;;1.08;;
70205;SDS011;57593;55.896;37.396;2022-12-29T00:46:42;6.00;;;1.30;;
70205;SDS011;57593;55.896;37.396;2022-12-29T00:47:13;3.95;;;1.23;;
70205;SDS011;57593;55.896;37.396;2022-12-29T00:47:43;5.00;;;0.98;;
70205;SDS011;57593;55.896;37.396;2022-12-29T00:48:14;4.40;;;1.30;;
70205;SDS011;57593;55.896;37.396;2022-12-29T00:48:44;3.75;;;1.10;;
70205;SDS011;57593;55.896;37.396;2022-12-29T00:49:34;7.07;;;0.95;;
70205;SDS011;57593;55.896;37.396;2022-12-29T00:50:05;3.55;;;1.00;;
70205;SDS011;57593;55.896;37.396;2022-12-29T00:50:35;3.75;;;0.95;;
70205;SDS011;57593;55.896;37.396;2022-12-29T00:51:06;4.45;;;0.80;;
70205;SDS011;57593;55.896;37.396;2022-12-29T00:51:37;6.95;;;1.40;;
70205;SDS011;57593;55.896;37.396;2022-12-29T00:52:09;4.28;;;0.90;;
70205;SDS011;57593;55.896;37.396;2022-12-29T00:52:41;3.70;;;1.30;;
70205;SDS011;57593;55.896;37.396;2022-12-29T00:53:12;4.18;;;1.35;;
70205;SDS011;57593;55.896;37.396;2022-12-29T00:53:42;4.93;;;1.20;;
70205;SDS011;57593;55.896;37.396;2022-12-29T00:54:13;6.22;;;1.20;;
70205;SDS011;57593;55.896;37.396;2022-12-29T00:54:45;3.40;;;1.13;;
70205;SDS011;57593;55.896;37.396;2022-12-29T00:55:15;3.10;;;0.98;;
70205;SDS011;57593;55.896;37.396;2022-12-29T00:55:46;4.03;;;1.15;;
70205;SDS011;57593;55.896;37.396;2022-12-29T00:56:17;4.68;;;1.15;;
70205;SDS011;57593;55.896;37.396;2022-12-29T00:56:48;4.25;;;0.98;;
70205;SDS011;57593;55.896;37.396;2022-12-29T00:57:20;6.07;;;1.10;;
70205;SDS011;57593;55.896;37.396;2022-12-29T00:57:51;7.90;;;1.55;;
70205;SDS011;57593;55.896;37.396;2022-12-29T00:58:22;3.53;;;0.98;;
70205;SDS011;57593;55.896;37.396;2022-12-29T00:58:52;5.97;;;1.48;;
70205;SDS011;57593;55.896;37.396;2022-12-29T00:59:23;6.20;;;1.27;;
70205;SDS011;57593;55.896;37.396;2022-12-29T00:59:54;6.50;;;1.17;;
70205;SDS011;57593;55.896;37.396;2022-12-29T01:00:24;3.55;;;0.80;;
70205;SDS011;57593;55.896;37.396;2022-12-29T01:01:05;5.53;;;1.10;;
70205;SDS011;57593;55.896;37.396;2022-12-29T01:01:37;3.28;;;1.45;;
70205;SDS011;57593;55.896;37.396;2022-12-29T01:02:09;3.90;;;1.13;;
70205;SDS011;57593;55.896;37.396;2022-12-29T01:02:40;4.80;;;1.58;;
70205;SDS011;57593;55.896;37.396;2022-12-29T01:03:10;5.47;;;1.10;;
70205;SDS011;57593;55.896;37.396;2022-12-29T01:03:41;5.60;;;1.30;;
70205;SDS011;57593;55.896;37.396;2022-12-29T01:04:12;4.15;;;1.20;;
70205;SDS011;57593;55.896;37.396;2022-12-29T01:04:42;5.70;;;1.10;;
70205;SDS011;57593;55.896;37.396;2022-12-29T01:05:13;10.50;;;1.30;;
70205;SDS011;57593;55.896;37.396;2022-12-29T01:05:44;6.75;;;1.10;;
70205;SDS011;57593;55.896;37.396;2022-12-29T01:06:16;5.10;;;1.33;;
70205;SDS011;57593;55.896;37.396;2022-12-29T01:06:47;5.35;;;1.17;;
70205;SDS011;57593;55.896;37.396;2022-12-29T01:07:19;5.10;;;1.17;;
70205;SDS011;57593;55.896;37.396;2022-12-29T01:07:50;4.20;;;1.17;;
70205;SDS011;57593;55.896;37.396;2022-12-29T01:08:20;6.43;;;1.10;;
70205;SDS011;57593;55.896;37.396;2022-12-29T01:08:51;5.32;;;1.02;;
70205;SDS011;57593;55.896;37.396;2022-12-29T01:09:42;2.50;;;1.20;;
70205;SDS011;57593;55.896;37.396;2022-12-29T01:10:32;3.30;;;1.20;;
70205;SDS011;57593;55.896;37.396;2022-12-29T01:11:06;7.32;;;1.63;;
70205;SDS011;57593;55.896;37.396;2022-12-29T01:11:39;3.72;;;1.42;;
70205;SDS011;57593;55.896;37.396;2022-12-29T01:12:11;12.20;;;2.28;;
70205;SDS011;57593;55.896;37.396;2022-12-29T01:12:42;5.43;;;1.50;;
70205;SDS011;57593;55.896;37.396;2022-12-29T01:13:15;7.35;;;1.60;;
70205;SDS011;57593;55.896;37.396;2022-12-29T01:13:46;5.43;;;1.35;;
70205;SDS011;57593;55.896;37.396;2022-12-29T01:14:17;6.20;;;1.45;;
70205;SDS011;57593;55.896;37.396;2022-12-29T01:14:49;7.15;;;1.65;;
70205;SDS011;57593;55.896;37.396;2022-12-29T01:15:19;4.30;;;1.75;;
70205;SDS011;57593;55.896;37.396;2022-12-29T01:15:52;7.68;;;1.50;;
70205;SDS011;57593;55.896;37.396;2022-12-29T01:16:23;5.90;;;1.73;;
70205;SDS011;57593;55.896;37.396;2022-12-29T01:16:54;5.10;;;1.63;;
70205;SDS011;57593;55.896;37.396;2022-12-29T01:17:25;6.20;;;1.50;;
70205;SDS011;57593;55.896;37.396;2022-12-29T01:17:56;3.70;;;1.60;;
70205;SDS011;57593;55.896;37.396;2022-12-29T01:18:27;6.53;;;1.70;;
70205;SDS011;57593;55.896;37.396;2022-12-29T01:18:58;7.28;;;1.77;;
70205;SDS011;57593;55.896;37.396;2022-12-29T01:19:31;3.88;;;1.58;;
70205;SDS011;57593;55.896;37.396;2022-12-29T01:20:02;3.65;;;1.30;;
70205;SDS011;57593;55.896;37.396;2022-12-29T01:20:33;7.00;;;2.17;;
70205;SDS011;57593;55.896;37.396;2022-12-29T01:21:05;6.38;;;1.75;;
70205;SDS011;57593;55.896;37.396;2022-12-29T01:21:36;5.60;;;1.63;;
70205;SDS011;57593;55.896;37.396;2022-12-29T01:22:07;8.88;;;2.00;;
70205;SDS011;57593;55.896;37.396;2022-12-29T01:22:38;5.75;;;2.10;;
70205;SDS011;57593;55.896;37.396;2022-12-29T01:23:09;5.90;;;1.80;;
70205;SDS011;57593;55.896;37.396;2022-12-29T01:23:39;5.18;;;2.03;;
70205;SDS011;57593;55.896;37.396;2022-12-29T01:24:10;8.73;;;2.03;;
70205;SDS011;57593;55.896;37.396;2022-12-29T01:24:41;5.05;;;1.80;;
70205;SDS011;57593;55.896;37.396;2022-12-29T01:25:11;6.88;;;1.90;;
70205;SDS011;57593;55.896;37.396;2022-12-29T01:25:42;7.13;;;2.17;;
70205;SDS011;57593;55.896;37.396;2022-12-29T01:26:13;5.20;;;2.15;;
70205;SDS011;57593;55.896;37.396;2022-12-29T01:26:45;7.65;;;1.70;;
70205;SDS011;57593;55.896;37.396;2022-12-29T01:27:17;4.38;;;1.30;;
70205;SDS011;57593;55.896;37.396;2022-12-29T01:27:47;5.75;;;2.00;;
70205;SDS011;57593;55.896;37.396;2022-12-29T01:28:18;7.57;;;1.50;;
70205;SDS011;57593;55.896;37.396;2022-12-29T01:28:48;7.40;;;1.65;;
70205;SDS011;57593;55.896;37.396;2022-12-29T01:29:19;10.07;;;2.50;;
70205;SDS011;57593;55.896;37.396;2022-12-29T01:29:50;5.18;;;1.55;;
70205;SDS011;57593;55.896;37.396;2022-12-29T01:30:20;6.30;;;1.38;;
70205;SDS011;57593;55.896;37.396;2022-12-29T01:30:51;10.48;;;2.00;;
70205;SDS011;57593;55.896;37.396;2022-12-29T01:31:21;9.85;;;1.88;;
70205;SDS011;57593;55.896;37.396;2022-12-29T01:31:52;3.60;;;1.40;;
70205;SDS011;57593;55.896;37.396;2022-12-29T01:32:23;4.38;;;1.50;;
70205;SDS011;57593;55.896;37.396;2022-12-29T01:32:53;6.88;;;1.63;;
70205;SDS011;57593;55.896;37.396;2022-12-29T01:33:24;4.55;;;1.33;;
70205;SDS011;57593;55.896;37.396;2022-12-29T01:33:55;4.47;;;1.38;;
70205;SDS011;57593;55.896;37.396;2022-12-29T01:34:25;5.18;;;1.45;;
70205;SDS011;57593;55.896;37.396;2022-12-29T01:34:56;8.70;;;1.45;;
70205;SDS011;57593;55.896;37.396;2022-12-29T01:35:27;4.65;;;1.50;;
70205;SDS011;57593;55.896;37.396;2022-12-29T01:36:01;5.28;;;1.25;;
70205;SDS011;57593;55.896;37.396;2022-12-29T01:36:33;7.82;;;2.15;;
70205;SDS011;57593;55.896;37.396;2022-12-29T01:37:04;5.65;;;1.52;;
70205;SDS011;57593;55.896;37.396;2022-12-29T01:37:34;5.32;;;1.60;;
70205;SDS011;57593;55.896;37.396;2022-12-29T01:38:06;6.95;;;1.35;;
70205;SDS011;57593;55.896;37.396;2022-12-29T01:38:38;10.63;;;1.83;;
70205;SDS011;57593;55.896;37.396;2022-12-29T01:39:10;6.20;;;1.52;;
70205;SDS011;57593;55.896;37.396;2022-12-29T01:39:40;5.78;;;1.42;;
70205;SDS011;57593;55.896;37.396;2022-12-29T01:40:11;5.53;;;1.70;;
70205;SDS011;57593;55.896;37.396;2022-12-29T01:40:43;4.80;;;1.42;;
70205;SDS011;57593;55.896;37.396;2022-12-29T01:41:15;7.50;;;1.46;;
70205;SDS011;57593;55.896;37.396;2022-12-29T01:41:47;4.65;;;1.20;;
70205;SDS011;57593;55.896;37.396;2022-12-29T01:42:19;4.53;;;1.35;;
70205;SDS011;57593;55.896;37.396;2022-12-29T01:42:54;4.00;;;1.48;;
70205;SDS011;57593;55.896;37.396;2022-12-29T01:45:22;5.40;;;1.10;;
70205;SDS011;57593;55.896;37.396;2022-12-29T01:45:53;8.32;;;1.67;;
70205;SDS011;57593;55.896;37.396;2022-12-29T01:46:30;5.44;;;1.30;;
70205;SDS011;57593;55.896;37.396;2022-12-29T01:47:12;5.16;;;1.58;;
70205;SDS011;57593;55.896;37.396;2022-12-29T01:47:48;5.38;;;1.17;;
70205;SDS011;57593;55.896;37.396;2022-12-29T01:48:22;6.70;;;1.60;;
70205;SDS011;57593;55.896;37.396;2022-12-29T01:49:04;4.75;;;1.42;;
70205;SDS011;57593;55.896;37.396;2022-12-29T01:49:58;5.10;;;1.13;;
70205;SDS011;57593;55.896;37.396;2022-12-29T01:50:33;8.32;;;1.73;;
70205;SDS011;57593;55.896;37.396;2022-12-29T01:51:09;7.45;;;1.65;;
70205;SDS011;57593;55.896;37.396;2022-12-29T01:51:41;5.80;;;1.70;;
70205;SDS011;57593;55.896;37.396;2022-12-29T01:52:26;5.82;;;1.70;;
70205;SDS011;57593;55.896;37.396;2022-12-29T01:53:01;7.32;;;1.46;;
70205;SDS011;57593;55.896;37.396;2022-12-29T01:53:36;3.76;;;1.52;;
70205;SDS011;57593;55.896;37.396;2022-12-29T01:54:09;7.36;;;1.32;;
70205;SDS011;57593;55.896;37.396;2022-12-29T01:54:48;4.20;;;1.38;;
70205;SDS011;57593;55.896;37.396;2022-12-29T01:55:23;8.32;;;1.60;;
70205;SDS011;57593;55.896;37.396;2022-12-29T01:55:58;6.18;;;1.42;;
70205;SDS011;57593;55.896;37.396;2022-12-29T01:56:32;6.75;;;1.80;;
70205;SDS011;57593;55.896;37.396;2022-12-29T01:57:04;5.90;;;1.50;;
70205;SDS011;57593;55.896;37.396;2022-12-29T01:57:40;6.20;;;1.40;;
70205;SDS011;57593;55.896;37.396;2022-12-29T01:58:14;7.36;;;1.62;;
70205;SDS011;57593;55.896;37.396;2022-12-29T01:58:52;5.60;;;2.05;;
70205;SDS011;57593;55.896;37.396;2022-12-29T01:59:34;7.40;;;2.18;;
70205;SDS011;57593;55.896;37.396;2022-12-29T02:00:09;6.12;;;1.56;;
70205;SDS011;57593;55.896;37.396;2022-12-29T02:00:44;7.36;;;1.78;;
70205;SDS011;57593;55.896;37.396;2022-12-29T02:01:15;6.18;;;1.83;;
70205;SDS011;57593;55.896;37.396;2022-12-29T02:01:50;5.60;;;1.92;;
70205;SDS011;57593;55.896;37.396;2022-12-29T02:02:21;7.32;;;1.46;;
70205;SDS011;57593;55.896;37.396;2022-12-29T02:02:53;6.38;;;1.60;;
70205;SDS011;57593;55.896;37.396;2022-12-29T02:03:25;5.10;;;2.06;;
70205;SDS011;57593;55.896;37.396;2022-12-29T02:03:57;6.82;;;1.56;;
70205;SDS011;57593;55.896;37.396;2022-12-29T02:04:29;4.36;;;1.52;;
70205;SDS011;57593;55.896;37.396;2022-12-29T02:05:05;3.53;;;1.70;;
70205;SDS011;57593;55.896;37.396;2022-12-29T02:05:42;11.92;;;1.90;;
70205;SDS011;57593;55.896;37.396;2022-12-29T02:06:51;3.48;;;1.48;;
70205;SDS011;57593;55.896;37.396;2022-12-29T02:07:21;6.04;;;1.44;;
70205;SDS011;57593;55.896;37.396;2022-12-29T02:07:55;3.80;;;1.63;;
70205;SDS011;57593;55.896;37.396;2022-12-29T02:08:26;10.07;;;1.55;;
70205;SDS011;57593;55.896;37.396;2022-12-29T02:08:59;4.02;;;1.48;;
70205;SDS011;57593;55.896;37.396;2022-12-29T02:09:30;7.70;;;1.50;;
70205;SDS011;57593;55.896;37.396;2022-12-29T02:10:01;7.25;;;1.60;;
70205;SDS011;57593;55.896;37.396;2022-12-29T02:10:33;12.64;;;2.12;;
70205;SDS011;57593;55.896;37.396;2022-12-29T02:11:06;7.05;;;1.65;;
70205;SDS011;57593;55.896;37.396;2022-12-29T02:11:38;6.18;;;1.70;;
70205;SDS011;57593;55.896;37.396;2022-12-29T02:12:09;6.66;;;1.70;;
70205;SDS011;57593;55.896;37.396;2022-12-29T02:12:40;6.65;;;1.65;;
70205;SDS011;57593;55.896;37.396;2022-12-29T02:13:11;6.88;;;2.20;;
70205;SDS011;57593;55.896;37.396;2022-12-29T02:14:08;10.10;;;1.56;;
70205;SDS011;57593;55.896;37.396;2022-12-29T02:14:40;5.43;;;1.40;;
70205;SDS011;57593;55.896;37.396;2022-12-29T02:15:11;6.20;;;1.30;;
70205;SDS011;57593;55.896;37.396;2022-12-29T02:32:56;5.98;;;1.86;;
70205;SDS011;57593;55.896;37.396;2022-12-29T02:33:37;6.84;;;1.32;;
70205;SDS011;57593;55.896;37.396;2022-12-29T02:38:15;5.07;;;2.67;;
70205;SDS011;57593;55.896;37.396;2022-12-29T02:39:40;6.08;;;2.14;;
70205;SDS011;57593;55.896;37.396;2022-12-29T02:40:23;5.16;;;2.12;;
70205;SDS011;57593;55.896;37.396;2022-12-29T02:42:48;5.74;;;1.96;;
70205;SDS011;57593;55.896;37.396;2022-12-29T02:46:27;5.94;;;1.80;;
70205;SDS011;57593;55.896;37.396;2022-12-29T02:47:09;8.44;;;1.86;;
70205;SDS011;57593;55.896;37.396;2022-12-29T02:47:56;8.00;;;2.16;;
70205;SDS011;57593;55.896;37.396;2022-12-29T02:48:32;7.65;;;2.65;;
70205;SDS011;57593;55.896;37.396;2022-12-29T02:49:42;11.86;;;2.48;;
70205;SDS011;57593;55.896;37.396;2022-12-29T02:51:06;8.42;;;1.86;;
70205;SDS011;57593;55.896;37.396;2022-12-29T02:51:46;7.00;;;2.30;;
70205;SDS011;57593;55.896;37.396;2022-12-29T02:52:23;4.32;;;1.58;;
70205;SDS011;57593;55.896;37.396;2022-12-29T02:52:58;7.08;;;1.76;;
70205;SDS011;57593;55.896;37.396;2022-12-29T02:53:32;8.88;;;2.36;;
70205;SDS011;57593;55.896;37.396;2022-12-29T02:54:23;6.80;;;2.18;;
70205;SDS011;57593;55.896;37.396;2022-12-29T02:55:13;4.72;;;1.70;;
70205;SDS011;57593;55.896;37.396;2022-12-29T02:55:48;5.07;;;2.17;;
70205;SDS011;57593;55.896;37.396;2022-12-29T02:56:20;4.76;;;1.54;;
70205;SDS011;57593;55.896;37.396;2022-12-29T02:56:50;5.70;;;1.88;;
70205;SDS011;57593;55.896;37.396;2022-12-29T02:58:46;5.88;;;1.52;;
70205;SDS011;57593;55.896;37.396;2022-12-29T02:59:20;4.28;;;1.85;;
70205;SDS011;57593;55.896;37.396;2022-12-29T02:59:52;6.34;;;1.60;;
70205;SDS011;57593;55.896;37.396;2022-12-29T03:00:27;8.92;;;2.08;;
70205;SDS011;57593;55.896;37.396;2022-12-29T03:01:13;7.96;;;1.70;;
70205;SDS011;57593;55.896;37.396;2022-12-29T03:04:39;7.68;;;1.66;;
70205;SDS011;57593;55.896;37.396;2022-12-29T03:07:23;5.07;;;1.67;;
70205;SDS011;57593;55.896;37.396;2022-12-29T03:10:47;8.24;;;2.20;;
70205;SDS011;57593;55.896;37.396;2022-12-29T03:11:32;10.10;;;1.78;;
70205;SDS011;57593;55.896;37.396;2022-12-29T03:12:31;5.18;;;1.74;;
70205;SDS011;57593;55.896;37.396;2022-12-29T03:17:27;7.26;;;2.20;;
70205;SDS011;57593;55.896;37.396;2022-12-29T03:19:48;9.92;;;2.00;;
70205;SDS011;57593;55.896;37.396;2022-12-29T03:20:24;6.74;;;2.02;;
70205;SDS011;57593;55.896;37.396;2022-12-29T03:21:03;6.06;;;1.78;;
70205;SDS011;57593;55.896;37.396;2022-12-29T03:21:42;5.84;;;1.80;;
70205;SDS011;57593;55.896;37.396;2022-12-29T03:22:41;7.92;;;2.02;;
70205;SDS011;57593;55.896;37.396;2022-12-29T03:23:18;8.16;;;1.62;;
70205;SDS011;57593;55.896;37.396;2022-12-29T03:23:50;6.82;;;2.08;;
70205;SDS011;57593;55.896;37.396;2022-12-29T03:24:29;9.16;;;2.06;;
70205;SDS011;57593;55.896;37.396;2022-12-29T03:25:05;8.60;;;1.84;;
70205;SDS011;57593;55.896;37.396;2022-12-29T03:25:42;9.10;;;2.04;;
70205;SDS011;57593;55.896;37.396;2022-12-29T03:26:17;6.30;;;1.82;;
70205;SDS011;57593;55.896;37.396;2022-12-29T03:26:52;2.88;;;1.46;;
70205;SDS011;57593;55.896;37.396;2022-12-29T03:27:31;5.82;;;2.14;;
70205;SDS011;57593;55.896;37.396;2022-12-29T03:28:10;6.64;;;1.96;;
70205;SDS011;57593;55.896;37.396;2022-12-29T03:28:50;11.74;;;2.56;;
70205;SDS011;57593;55.896;37.396;2022-12-29T03:29:28;6.16;;;1.56;;
70205;SDS011;57593;55.896;37.396;2022-12-29T03:30:03;5.50;;;1.74;;
70205;SDS011;57593;55.896;37.396;2022-12-29T03:30:36;5.30;;;1.86;;
70205;SDS011;57593;55.896;37.396;2022-12-29T03:31:10;12.04;;;2.94;;
70205;SDS011;57593;55.896;37.396;2022-12-29T03:31:43;6.88;;;2.00;;
70205;SDS011;57593;55.896;37.396;2022-12-29T03:32:15;7.66;;;2.22;;
70205;SDS011;57593;55.896;37.396;2022-12-29T03:32:51;10.72;;;1.98;;
70205;SDS011;57593;55.896;37.396;2022-12-29T03:33:28;10.35;;;2.17;;
70205;SDS011;57593;55.896;37.396;2022-12-29T03:34:03;7.34;;;1.96;;
70205;SDS011;57593;55.896;37.396;2022-12-29T03:34:36;6.76;;;1.76;;
70205;SDS011;57593;55.896;37.396;2022-12-29T03:35:09;6.54;;;1.82;;
70205;SDS011;57593;55.896;37.396;2022-12-29T03:35:44;7.86;;;2.44;;
70205;SDS011;57593;55.896;37.396;2022-12-29T03:36:23;8.54;;;2.26;;
70205;SDS011;57593;55.896;37.396;2022-12-29T03:37:02;8.60;;;2.66;;
70205;SDS011;57593;55.896;37.396;2022-12-29T03:37:38;4.60;;;2.06;;
70205;SDS011;57593;55.896;37.396;2022-12-29T03:38:13;6.52;;;1.90;;
70205;SDS011;57593;55.896;37.396;2022-12-29T03:38:50;5.62;;;2.08;;
70205;SDS011;57593;55.896;37.396;2022-12-29T03:39:36;7.12;;;2.46;;
70205;SDS011;57593;55.896;37.396;2022-12-29T03:40:07;6.34;;;1.92;;
70205;SDS011;57593;55.896;37.396;2022-12-29T03:40:39;6.76;;;2.10;;
70205;SDS011;57593;55.896;37.396;2022-12-29T03:41:16;6.54;;;1.94;;
70205;SDS011;57593;55.896;37.396;2022-12-29T03:41:50;5.96;;;2.08;;
70205;SDS011;57593;55.896;37.396;2022-12-29T03:42:29;4.82;;;1.94;;
70205;SDS011;57593;55.896;37.396;2022-12-29T03:43:02;8.16;;;2.40;;
70205;SDS011;57593;55.896;37.396;2022-12-29T03:43:38;7.52;;;1.92;;
70205;SDS011;57593;55.896;37.396;2022-12-29T03:44:09;10.26;;;2.54;;
70205;SDS011;57593;55.896;37.396;2022-12-29T03:44:42;6.24;;;2.20;;
70205;SDS011;57593;55.896;37.396;2022-12-29T03:45:16;7.64;;;2.14;;
70205;SDS011;57593;55.896;37.396;2022-12-29T03:45:47;8.32;;;2.20;;
70205;SDS011;57593;55.896;37.396;2022-12-29T03:46:17;7.45;;;2.47;;
70205;SDS011;57593;55.896;37.396;2022-12-29T03:46:48;9.55;;;2.80;;
70205;SDS011;57593;55.896;37.396;2022-12-29T03:47:20;5.98;;;2.10;;
70205;SDS011;57593;55.896;37.396;2022-12-29T03:47:51;8.15;;;2.58;;
70205;SDS011;57593;55.896;37.396;2022-12-29T03:48:23;6.76;;;2.52;;
70205;SDS011;57593;55.896;37.396;2022-12-29T03:48:55;5.78;;;2.82;;
70205;SDS011;57593;55.896;37.396;2022-12-29T03:49:27;10.10;;;2.68;;
70205;SDS011;57593;55.896;37.396;2022-12-29T03:49:58;8.70;;;2.00;;
70205;SDS011;57593;55.896;37.396;2022-12-29T03:50:33;6.92;;;2.30;;
70205;SDS011;57593;55.896;37.396;2022-12-29T03:51:04;6.32;;;2.55;;
70205;SDS011;57593;55.896;37.396;2022-12-29T03:51:35;4.97;;;2.33;;
70205;SDS011;57593;55.896;37.396;2022-12-29T03:52:06;5.24;;;2.26;;
70205;SDS011;57593;55.896;37.396;2022-12-29T03:52:41;6.50;;;2.40;;
70205;SDS011;57593;55.896;37.396;2022-12-29T03:53:12;6.88;;;2.40;;
70205;SDS011;57593;55.896;37.396;2022-12-29T03:53:43;8.88;;;2.95;;
70205;SDS011;57593;55.896;37.396;2022-12-29T03:54:14;12.82;;;3.15;;
70205;SDS011;57593;55.896;37.396;2022-12-29T03:54:44;5.90;;;2.47;;
70205;SDS011;57593;55.896;37.396;2022-12-29T03:55:17;8.44;;;2.68;;
70205;SDS011;57593;55.896;37.396;2022-12-29T03:55:47;8.05;;;2.40;;
70205;SDS011;57593;55.896;37.396;2022-12-29T03:56:19;6.96;;;2.66;;
70205;SDS011;57593;55.896;37.396;2022-12-29T03:56:51;9.72;;;2.24;;
70205;SDS011;57593;55.896;37.396;2022-12-29T03:57:32;10.00;;;3.00;;
70205;SDS011;57593;55.896;37.396;2022-12-29T03:58:07;8.74;;;2.78;;
70205;SDS011;57593;55.896;37.396;2022-12-29T03:59:03;5.26;;;2.18;;
70205;SDS011;57593;55.896;37.396;2022-12-29T03:59:40;5.04;;;2.20;;
70205;SDS011;57593;55.896;37.396;2022-12-29T04:00:11;9.50;;;2.78;;
70205;SDS011;57593;55.896;37.396;2022-12-29T04:00:45;4.94;;;2.28;;
70205;SDS011;57593;55.896;37.396;2022-12-29T04:01:16;8.07;;;2.55;;
70205;SDS011;57593;55.896;37.396;2022-12-29T04:01:47;9.18;;;3.26;;
70205;SDS011;57593;55.896;37.396;2022-12-29T04:02:18;10.75;;;3.00;;
70205;SDS011;57593;55.896;37.396;2022-12-29T04:02:49;7.28;;;2.82;;
70205;SDS011;57593;55.896;37.396;2022-12-29T04:03:24;5.84;;;2.58;;
70205;SDS011;57593;55.896;37.396;2022-12-29T04:03:55;5.78;;;2.75;;
70205;SDS011;57593;55.896;37.396;2022-12-29T04:04:26;6.20;;;2.33;;
70205;SDS011;57593;55.896;37.396;2022-12-29T04:04:56;7.82;;;3.42;;
70205;SDS011;57593;55.896;37.396;2022-12-29T04:05:27;7.80;;;2.70;;
70205;SDS011;57593;55.896;37.396;2022-12-29T04:05:59;7.82;;;2.34;;
70205;SDS011;57593;55.896;37.396;2022-12-29T04:06:31;9.64;;;2.92;;
70205;SDS011;57593;55.896;37.396;2022-12-29T04:07:06;7.90;;;2.68;;
70205;SDS011;57593;55.896;37.396;2022-12-29T04:07:37;9.50;;;2.67;;
70205;SDS011;57593;55.896;37.396;2022-12-29T04:08:08;7.58;;;2.68;;
70205;SDS011;57593;55.896;37.396;2022-12-29T04:08:39;8.23;;;3.00;;
70205;SDS011;57593;55.896;37.396;2022-12-29T04:09:10;8.24;;;2.46;;
70205;SDS011;57593;55.896;37.396;2022-12-29T04:09:47;7.36;;;2.50;;
70205;SDS011;57593;55.896;37.396;2022-12-29T04:10:23;7.98;;;2.14;;
70205;SDS011;57593;55.896;37.396;2022-12-29T04:10:58;8.82;;;2.66;;
70205;SDS011;57593;55.896;37.396;2022-12-29T04:11:28;8.32;;;2.35;;
70205;SDS011;57593;55.896;37.396;2022-12-29T04:11:59;5.32;;;1.90;;
70205;SDS011;57593;55.896;37.396;2022-12-29T04:12:31;9.80;;;2.52;;
70205;SDS011;57593;55.896;37.396;2022-12-29T04:13:02;6.86;;;2.62;;
70205;SDS011;57593;55.896;37.396;2022-12-29T04:13:32;8.98;;;2.42;;
70205;SDS011;57593;55.896;37.396;2022-12-29T04:14:03;5.94;;;2.46;;
70205;SDS011;57593;55.896;37.396;2022-12-29T04:14:36;5.04;;;2.04;;